Time;durP1;ratioP1;P1;durP2;ratioP2;P2;SDS_P1;SDS_P2;PMS_P1;PMS_P2;Temp;Humidity;BMP_temperature;BMP_pressure;BME280_temperature;BME280_humidity;BME280_pressure;Samples;Min_cycle;Max_cycle;Signal;HPM_P1;HPM_P2
2023/07/21 00:02:20;;;;;;;3.10;1.95;;;;;;;;;;5038922;28;20029;-75
2023/07/21 00:04:46;;;;;;;4.80;2.33;;;;;;;;;;5039087;28;20087;-75
2023/07/21 00:07:12;;;;;;;3.33;2.72;;;;;;;;;;5056389;28;20033;-75
2023/07/21 00:09:38;;;;;;;3.22;2.50;;;;;;;;;;5042998;28;20093;-75
2023/07/21 00:12:04;;;;;;;3.75;2.42;;;;;;;;;;5037705;28;20518;-75
2023/07/21 00:14:31;;;;;;;4.47;2.22;;;;;;;;;;5039221;28;20037;-75
2023/07/21 00:16:57;;;;;;;4.00;2.67;;;;;;;;;;5039208;28;20025;-75
2023/07/21 00:19:23;;;;;;;4.13;2.40;;;;;;;;;;5050743;28;20183;-76
2023/07/21 00:21:49;;;;;;;3.55;3.13;;;;;;;;;;5042084;28;20523;-76
2023/07/21 00:24:17;;;;;;;3.45;2.50;;;;;;;;;;5052260;28;20022;-75
2023/07/21 00:26:44;;;;;;;5.75;2.72;;;;;;;;;;5044414;28;20024;-76
2023/07/21 00:29:11;;;;;;;4.10;2.38;;;;;;;;;;5045659;28;20028;-76
2023/07/21 00:31:38;;;;;;;3.78;2.60;;;;;;;;;;5045296;28;20035;-76
2023/07/21 00:34:05;;;;;;;3.42;2.38;;;;;;;;;;5039045;28;20924;-76
2023/07/21 00:36:32;;;;;;;4.68;2.30;;;;;;;;;;5046676;28;20036;-76
2023/07/21 00:38:58;;;;;;;2.70;2.28;;;;;;;;;;5056546;28;20095;-76
2023/07/21 00:41:25;;;;;;;4.97;2.60;;;;;;;;;;5038746;28;20047;-76
2023/07/21 00:43:51;;;;;;;5.65;2.35;;;;;;;;;;5040581;28;20480;-76
2023/07/21 00:46:17;;;;;;;4.45;2.80;;;;;;;;;;5043879;28;20025;-76
2023/07/21 00:48:44;;;;;;;3.67;2.38;;;;;;;;;;5043767;28;20031;-76
2023/07/21 00:51:10;;;;;;;3.17;2.45;;;;;;;;;;5060760;28;20033;-75
2023/07/21 00:53:37;;;;;;;3.92;2.30;;;;;;;;;;5040842;28;20041;-76
2023/07/21 00:56:03;;;;;;;6.00;2.42;;;;;;;;;;5044150;28;20384;-75
2023/07/21 00:58:30;;;;;;;6.03;2.97;;;;;;;;;;5046010;28;20384;-75
2023/07/21 01:00:56;;;;;;;3.55;2.75;;;;;;;;;;5042296;28;20480;-76
2023/07/21 01:03:24;;;;;;;5.07;2.88;;;;;;;;;;5042353;28;20033;-76
2023/07/21 01:05:52;;;;;;;3.30;2.50;;;;;;;;;;5036632;28;20029;-76
2023/07/21 01:08:19;;;;;;;4.47;2.70;;;;;;;;;;5041649;28;20041;-76
2023/07/21 01:10:46;;;;;;;8.00;3.40;;;;;;;;;;5038761;28;20030;-75
2023/07/21 01:13:13;;;;;;;3.67;3.00;;;;;;;;;;5040205;28;20320;-76
2023/07/21 01:15:44;;;;;;;4.43;3.05;;;;;;;;;;5045667;28;20044;-75
2023/07/21 01:18:11;;;;;;;4.07;3.17;;;;;;;;;;5041537;28;20455;-76
2023/07/21 01:20:37;;;;;;;5.72;3.10;;;;;;;;;;5047786;28;20029;-75
2023/07/21 01:23:10;;;;;;;5.22;4.10;;;;;;;;;;5041841;28;20100;-77
2023/07/21 01:25:38;;;;;;;4.10;2.80;;;;;;;;;;5057750;28;20056;-75
2023/07/21 01:28:06;;;;;;;4.10;2.70;;;;;;;;;;5038638;28;20041;-76
2023/07/21 01:30:32;;;;;;;3.60;2.55;;;;;;;;;;5043543;28;20059;-75
2023/07/21 01:32:59;;;;;;;3.45;2.80;;;;;;;;;;5040128;28;20033;-76
2023/07/21 01:35:28;;;;;;;4.90;2.55;;;;;;;;;;5036986;28;20404;-75
2023/07/21 01:37:55;;;;;;;4.15;2.67;;;;;;;;;;5041389;28;20438;-76
2023/07/21 01:40:21;;;;;;;5.13;2.75;;;;;;;;;;5043392;28;20505;-76
2023/07/21 01:42:47;;;;;;;3.30;2.42;;;;;;;;;;5039576;28;20032;-75
2023/07/21 01:45:14;;;;;;;7.03;2.83;;;;;;;;;;5045758;28;20029;-76
2023/07/21 01:47:40;;;;;;;5.95;2.47;;;;;;;;;;5036984;28;20048;-75
2023/07/21 01:50:09;;;;;;;5.97;2.38;;;;;;;;;;5061793;28;20375;-76
2023/07/21 01:52:36;;;;;;;3.53;2.63;;;;;;;;;;5042739;28;20078;-75
2023/07/21 01:55:09;;;;;;;3.83;2.72;;;;;;;;;;5040286;28;20028;-76
2023/07/21 01:57:38;;;;;;;3.30;2.40;;;;;;;;;;5040885;28;20442;-76
2023/07/21 02:00:09;;;;;;;4.25;2.40;;;;;;;;;;5042422;28;20108;-75
2023/07/21 02:02:35;;;;;;;4.10;2.67;;;;;;;;;;5042601;28;20108;-76
2023/07/21 02:05:01;;;;;;;3.50;2.20;;;;;;;;;;5042468;28;20043;-75
2023/07/21 02:07:27;;;;;;;5.32;3.05;;;;;;;;;;5040443;28;20415;-75
2023/07/21 02:09:54;;;;;;;2.80;2.35;;;;;;;;;;5037953;28;20032;-76
2023/07/21 02:12:20;;;;;;;5.13;2.83;;;;;;;;;;5042878;28;20024;-76
2023/07/21 02:14:46;;;;;;;5.22;2.55;;;;;;;;;;5041110;28;20494;-76
2023/07/21 02:17:12;;;;;;;6.50;2.65;;;;;;;;;;5044250;28;20082;-74
2023/07/21 02:19:39;;;;;;;4.90;3.17;;;;;;;;;;5042182;28;20036;-75
2023/07/21 02:22:05;;;;;;;4.57;3.08;;;;;;;;;;5037999;28;20045;-75
2023/07/21 02:24:31;;;;;;;4.60;2.35;;;;;;;;;;5044679;28;20037;-76
2023/07/21 02:26:59;;;;;;;4.70;2.55;;;;;;;;;;5036802;28;20029;-75
2023/07/21 02:29:25;;;;;;;3.45;2.53;;;;;;;;;;5041632;28;20017;-74
2023/07/21 02:31:51;;;;;;;6.13;3.38;;;;;;;;;;5043280;28;20029;-76
2023/07/21 02:34:17;;;;;;;5.05;2.55;;;;;;;;;;5040049;28;20390;-75
2023/07/21 02:36:43;;;;;;;3.97;2.40;;;;;;;;;;5040811;28;20029;-75
2023/07/21 02:39:09;;;;;;;5.18;2.63;;;;;;;;;;5037586;28;20461;-76
2023/07/21 02:41:35;;;;;;;4.50;2.70;;;;;;;;;;5041957;28;20032;-75
2023/07/21 02:44:02;;;;;;;3.70;2.50;;;;;;;;;;5043576;28;20013;-76
2023/07/21 02:46:29;;;;;;;4.32;2.90;;;;;;;;;;5039928;28;20117;-75
2023/07/21 02:48:55;;;;;;;5.95;3.20;;;;;;;;;;5043406;28;20117;-76
2023/07/21 02:51:21;;;;;;;6.57;2.40;;;;;;;;;;5043426;28;20029;-75
2023/07/21 02:53:49;;;;;;;5.60;3.20;;;;;;;;;;5039888;28;20031;-77
2023/07/21 02:56:15;;;;;;;3.88;2.60;;;;;;;;;;5037144;28;20503;-76
2023/07/21 02:58:41;;;;;;;3.35;2.85;;;;;;;;;;5041248;28;20025;-75
2023/07/21 03:01:09;;;;;;;4.82;2.63;;;;;;;;;;5056882;28;20092;-75
2023/07/21 03:03:36;;;;;;;4.72;2.70;;;;;;;;;;5058166;28;20032;-75
2023/07/21 03:06:02;;;;;;;4.93;2.42;;;;;;;;;;5040966;28;20049;-75
2023/07/21 03:08:30;;;;;;;5.15;3.05;;;;;;;;;;5037877;28;20544;-76
2023/07/21 03:10:56;;;;;;;5.53;2.60;;;;;;;;;;5058893;28;20028;-74
2023/07/21 03:13:26;;;;;;;4.20;2.78;;;;;;;;;;5041721;28;20040;-75
2023/07/21 03:15:55;;;;;;;4.95;3.00;;;;;;;;;;5040166;28;20028;-76
2023/07/21 03:18:21;;;;;;;3.35;2.60;;;;;;;;;;5039350;28;20573;-76
2023/07/21 03:20:49;;;;;;;6.78;2.88;;;;;;;;;;5043684;28;20028;-75
2023/07/21 03:23:15;;;;;;;5.78;3.40;;;;;;;;;;5043232;28;20029;-75
2023/07/21 03:25:46;;;;;;;4.43;2.50;;;;;;;;;;5042468;28;20041;-76
2023/07/21 03:28:12;;;;;;;3.83;2.72;;;;;;;;;;5057181;28;20036;-75
2023/07/21 03:30:39;;;;;;;4.55;2.30;;;;;;;;;;5036106;28;20032;-76
2023/07/21 03:33:05;;;;;;;4.53;2.65;;;;;;;;;;5043503;28;20031;-76
2023/07/21 03:35:31;;;;;;;4.47;3.10;;;;;;;;;;5042495;28;20033;-75
2023/07/21 03:37:58;;;;;;;5.88;2.95;;;;;;;;;;5042924;28;20025;-74
2023/07/21 03:40:24;;;;;;;6.57;2.50;;;;;;;;;;5044337;28;20033;-76
2023/07/21 03:42:50;;;;;;;5.60;2.55;;;;;;;;;;5039812;28;20029;-75
2023/07/21 03:45:16;;;;;;;4.13;2.58;;;;;;;;;;5042862;28;20021;-76
2023/07/21 03:47:42;;;;;;;4.95;2.67;;;;;;;;;;5040464;28;20025;-74
2023/07/21 03:50:08;;;;;;;18.02;4.05;;;;;;;;;;5057239;28;20029;-76
2023/07/21 03:52:34;;;;;;;3.70;3.20;;;;;;;;;;5041119;28;20392;-76
2023/07/21 03:55:01;;;;;;;5.30;3.03;;;;;;;;;;5041930;28;20350;-75
2023/07/21 03:57:27;;;;;;;3.67;2.80;;;;;;;;;;5044891;28;20083;-75
2023/07/21 03:59:53;;;;;;;6.22;2.65;;;;;;;;;;5045938;28;20021;-76
2023/07/21 04:02:19;;;;;;;4.47;2.40;;;;;;;;;;5045473;28;20029;-75
2023/07/21 04:04:46;;;;;;;5.07;3.00;;;;;;;;;;5046598;28;20503;-75
2023/07/21 04:07:12;;;;;;;3.83;2.85;;;;;;;;;;5048391;28;20021;-76
2023/07/21 04:09:39;;;;;;;4.53;2.78;;;;;;;;;;5047321;28;20028;-75
2023/07/21 04:12:06;;;;;;;4.53;2.88;;;;;;;;;;5043618;28;20068;-76
2023/07/21 04:14:32;;;;;;;3.70;2.80;;;;;;;;;;5046324;28;20356;-74
2023/07/21 04:16:58;;;;;;;4.05;2.50;;;;;;;;;;5048234;28;20468;-76
2023/07/21 04:19:27;;;;;;;3.72;2.47;;;;;;;;;;5043459;28;20056;-75
2023/07/21 04:21:53;;;;;;;5.45;2.72;;;;;;;;;;5060471;28;20055;-75
2023/07/21 04:24:20;;;;;;;4.13;2.75;;;;;;;;;;5045874;28;20033;-75
2023/07/21 04:26:46;;;;;;;6.05;2.65;;;;;;;;;;5043276;28;20045;-75
2023/07/21 04:29:12;;;;;;;8.05;2.85;;;;;;;;;;5046847;28;20531;-75
2023/07/21 04:31:38;;;;;;;4.05;2.47;;;;;;;;;;5038304;28;20028;-76
2023/07/21 04:34:04;;;;;;;3.83;2.60;;;;;;;;;;5045134;28;20558;-76
2023/07/21 04:36:30;;;;;;;3.28;2.58;;;;;;;;;;5045914;28;20025;-75
2023/07/21 04:38:57;;;;;;;3.65;2.63;;;;;;;;;;5047266;28;20332;-74
2023/07/21 04:41:24;;;;;;;5.32;2.50;;;;;;;;;;5046406;28;20053;-76
2023/07/21 04:43:51;;;;;;;4.10;2.65;;;;;;;;;;5060031;28;20059;-76
2023/07/21 04:46:18;;;;;;;4.55;2.63;;;;;;;;;;5045541;28;20109;-75
2023/07/21 04:48:44;;;;;;;3.40;2.35;;;;;;;;;;5061468;28;20025;-75
2023/07/21 04:51:10;;;;;;;6.75;3.17;;;;;;;;;;5061946;28;20029;-76
2023/07/21 04:53:36;;;;;;;5.28;2.70;;;;;;;;;;5043714;28;20025;-75
2023/07/21 04:56:02;;;;;;;5.72;2.75;;;;;;;;;;5042035;28;20471;-75
2023/07/21 04:58:28;;;;;;;3.67;2.30;;;;;;;;;;5043663;28;20484;-74
2023/07/21 05:00:55;;;;;;;3.92;2.55;;;;;;;;;;5045775;28;20025;-75
2023/07/21 05:03:21;;;;;;;10.27;3.92;;;;;;;;;;5057218;28;20025;-75
2023/07/21 05:05:47;;;;;;;3.90;2.88;;;;;;;;;;5047553;28;20090;-75
2023/07/21 05:08:14;;;;;;;4.75;2.58;;;;;;;;;;5044456;28;20487;-75
2023/07/21 05:10:40;;;;;;;4.05;2.80;;;;;;;;;;5045521;28;20028;-76
2023/07/21 05:13:07;;;;;;;4.05;2.75;;;;;;;;;;5039640;28;20464;-75
2023/07/21 05:15:35;;;;;;;4.35;2.63;;;;;;;;;;5044994;28;20029;-75
2023/07/21 05:18:01;;;;;;;3.65;2.75;;;;;;;;;;5058388;28;20032;-75
2023/07/21 05:20:27;;;;;;;3.40;2.67;;;;;;;;;;5042527;28;20546;-74
2023/07/21 05:22:53;;;;;;;5.82;3.38;;;;;;;;;;5042107;28;20033;-75
2023/07/21 05:25:19;;;;;;;7.95;2.70;;;;;;;;;;5062306;28;20017;-76
2023/07/21 05:27:49;;;;;;;4.00;2.90;;;;;;;;;;5043357;28;20476;-74
2023/07/21 05:30:15;;;;;;;4.82;2.55;;;;;;;;;;5044352;28;20033;-75
2023/07/21 05:32:42;;;;;;;7.30;2.70;;;;;;;;;;5040072;28;20056;-75
2023/07/21 05:35:08;;;;;;;5.10;3.00;;;;;;;;;;5043287;28;20067;-75
2023/07/21 05:37:34;;;;;;;4.05;2.78;;;;;;;;;;5039984;28;20035;-75
2023/07/21 05:40:01;;;;;;;4.85;2.63;;;;;;;;;;5041109;28;20542;-76
2023/07/21 05:42:27;;;;;;;4.60;2.80;;;;;;;;;;5041426;28;20575;-75
2023/07/21 05:44:53;;;;;;;3.40;2.70;;;;;;;;;;5037914;28;20067;-75
2023/07/21 05:47:19;;;;;;;3.50;2.60;;;;;;;;;;5039457;28;20031;-75
2023/07/21 05:49:45;;;;;;;3.72;2.90;;;;;;;;;;5030464;28;20037;-76
2023/07/21 05:52:11;;;;;;;4.63;2.83;;;;;;;;;;5034348;28;20400;-76
2023/07/21 05:54:39;;;;;;;4.90;2.60;;;;;;;;;;5034797;28;20025;-76
2023/07/21 05:57:06;;;;;;;6.53;2.60;;;;;;;;;;5034859;28;20053;-75
2023/07/21 05:59:32;;;;;;;4.03;2.83;;;;;;;;;;5042906;28;21483;-76
2023/07/21 06:01:59;;;;;;;6.40;3.53;;;;;;;;;;5039739;28;20099;-75
2023/07/21 06:04:25;;;;;;;3.53;2.70;;;;;;;;;;5052335;28;20029;-76
2023/07/21 06:06:53;;;;;;;6.35;2.83;;;;;;;;;;5043272;28;20659;-78
2023/07/21 06:09:20;;;;;;;5.10;2.63;;;;;;;;;;5054878;28;20481;-77
2023/07/21 06:11:46;;;;;;;6.78;2.97;;;;;;;;;;5039482;28;20029;-78
2023/07/21 06:14:12;;;;;;;3.70;2.80;;;;;;;;;;5039482;28;20021;-77
2023/07/21 06:16:38;;;;;;;4.18;2.72;;;;;;;;;;5041042;28;20067;-77
2023/07/21 06:19:04;;;;;;;3.38;2.60;;;;;;;;;;5042656;28;20029;-77
2023/07/21 06:21:30;;;;;;;3.63;2.67;;;;;;;;;;5040021;28;20519;-78
2023/07/21 06:23:57;;;;;;;4.63;2.97;;;;;;;;;;5038963;28;20040;-77
2023/07/21 06:26:23;;;;;;;3.05;2.33;;;;;;;;;;5043655;28;20035;-77
2023/07/21 06:28:51;;;;;;;4.70;2.70;;;;;;;;;;5038313;28;20025;-77
2023/07/21 06:31:17;;;;;;;3.50;3.03;;;;;;;;;;5036700;28;20522;-76
2023/07/21 06:33:43;;;;;;;4.72;2.65;;;;;;;;;;5039605;28;20035;-77
2023/07/21 06:36:09;;;;;;;4.00;2.88;;;;;;;;;;5044844;28;20036;-77
2023/07/21 06:38:35;;;;;;;3.63;2.45;;;;;;;;;;5040972;28;20500;-77
2023/07/21 06:41:04;;;;;;;3.65;3.00;;;;;;;;;;5037848;28;20032;-77
2023/07/21 06:43:32;;;;;;;6.38;2.80;;;;;;;;;;5054080;28;20345;-77
2023/07/21 06:45:58;;;;;;;3.97;2.58;;;;;;;;;;5038154;28;20025;-77
2023/07/21 06:48:25;;;;;;;2.95;2.45;;;;;;;;;;5042514;28;20380;-77
2023/07/21 06:50:51;;;;;;;4.53;2.53;;;;;;;;;;5037036;28;21454;-77
2023/07/21 06:53:17;;;;;;;6.32;2.72;;;;;;;;;;5042318;28;20472;-77
2023/07/21 06:55:46;;;;;;;4.45;2.33;;;;;;;;;;5041614;28;20029;-77
2023/07/21 06:58:12;;;;;;;3.38;2.47;;;;;;;;;;5043754;28;20504;-77
2023/07/21 07:00:38;;;;;;;5.40;2.85;;;;;;;;;;5037237;28;20060;-78
2023/07/21 07:03:04;;;;;;;3.83;2.63;;;;;;;;;;5042774;28;20025;-77
2023/07/21 07:05:30;;;;;;;5.35;2.60;;;;;;;;;;5037084;28;20029;-78
2023/07/21 07:07:57;;;;;;;4.25;2.45;;;;;;;;;;5037203;28;20029;-77
2023/07/21 07:10:23;;;;;;;5.43;2.58;;;;;;;;;;5036029;28;20060;-78
2023/07/21 07:12:50;;;;;;;5.18;2.80;;;;;;;;;;5053083;28;21933;-77
2023/07/21 07:15:16;;;;;;;3.83;2.40;;;;;;;;;;5040543;28;20025;-78
2023/07/21 07:17:43;;;;;;;5.38;2.67;;;;;;;;;;5038965;28;20028;-78
2023/07/21 07:20:11;;;;;;;4.30;2.40;;;;;;;;;;5036108;28;20100;-77
2023/07/21 07:22:38;;;;;;;5.95;2.53;;;;;;;;;;5049582;28;20074;-77
2023/07/21 07:25:04;;;;;;;4.18;2.83;;;;;;;;;;5039485;28;20028;-78
2023/07/21 07:27:31;;;;;;;3.45;2.28;;;;;;;;;;5038767;28;20036;-78
2023/07/21 07:29:57;;;;;;;3.45;2.25;;;;;;;;;;5034534;28;20029;-77
2023/07/21 07:32:23;;;;;;;2.95;2.35;;;;;;;;;;5032355;28;20653;-78
2023/07/21 07:34:49;;;;;;;2.53;2.17;;;;;;;;;;5039594;28;20024;-77
2023/07/21 07:37:18;;;;;;;3.95;2.28;;;;;;;;;;5043033;28;20029;-77
2023/07/21 07:39:44;;;;;;;3.00;2.10;;;;;;;;;;5039411;28;20037;-77
2023/07/21 07:42:10;;;;;;;2.17;1.98;;;;;;;;;;5058648;28;20025;-78
2023/07/21 07:44:36;;;;;;;3.50;2.17;;;;;;;;;;5042612;28;20456;-78
2023/07/21 07:47:03;;;;;;;3.55;1.92;;;;;;;;;;5045535;28;20033;-79
2023/07/21 07:49:29;;;;;;;2.00;1.80;;;;;;;;;;5063417;28;20525;-78
2023/07/21 07:51:55;;;;;;;2.88;2.00;;;;;;;;;;5048597;28;20035;-78
2023/07/21 07:54:22;;;;;;;5.20;2.13;;;;;;;;;;5049210;28;20091;-78
2023/07/21 07:56:50;;;;;;;6.40;2.58;;;;;;;;;;5046204;28;20458;-78
2023/07/21 07:59:16;;;;;;;2.65;1.98;;;;;;;;;;5045828;28;20013;-78
2023/07/21 08:01:42;;;;;;;2.40;2.00;;;;;;;;;;5043898;28;20431;-78
2023/07/21 08:04:08;;;;;;;2.95;2.28;;;;;;;;;;5046920;28;20029;-78
2023/07/21 08:06:34;;;;;;;3.85;2.00;;;;;;;;;;5048336;28;20057;-78
2023/07/21 08:09:00;;;;;;;4.05;2.20;;;;;;;;;;5046137;28;20063;-78
2023/07/21 08:11:27;;;;;;;2.60;2.15;;;;;;;;;;5048905;28;20108;-78
2023/07/21 08:13:53;;;;;;;2.92;2.28;;;;;;;;;;5049133;28;20028;-79
2023/07/21 08:16:19;;;;;;;3.35;2.17;;;;;;;;;;5044252;28;20040;-78
2023/07/21 08:18:45;;;;;;;3.33;2.00;;;;;;;;;;5059473;28;20091;-77
2023/07/21 08:21:22;;;;;;;3.10;1.98;;;;;;;;;;5043099;28;20095;-78
2023/07/21 08:23:49;;;;;;;2.40;2.00;;;;;;;;;;5047737;28;20021;-78
2023/07/21 08:26:15;;;;;;;3.75;2.63;;;;;;;;;;5038797;28;20031;-78
2023/07/21 08:28:41;;;;;;;3.33;2.13;;;;;;;;;;5041248;28;20495;-78
2023/07/21 08:31:09;;;;;;;2.15;1.95;;;;;;;;;;5045585;28;20033;-78
2023/07/21 08:33:35;;;;;;;2.55;2.10;;;;;;;;;;5046382;28;20594;-78
2023/07/21 08:36:01;;;;;;;4.85;2.22;;;;;;;;;;5044493;28;20028;-78
2023/07/21 08:38:27;;;;;;;3.97;2.47;;;;;;;;;;5058949;28;20563;-78
2023/07/21 08:40:57;;;;;;;2.58;1.70;;;;;;;;;;5043315;28;20029;-78
2023/07/21 08:43:23;;;;;;;3.03;2.00;;;;;;;;;;5042641;28;20037;-78
2023/07/21 08:45:50;;;;;;;3.22;1.95;;;;;;;;;;5043339;28;20409;-78
2023/07/21 08:48:17;;;;;;;2.30;2.00;;;;;;;;;;5042081;28;20121;-78
2023/07/21 08:50:44;;;;;;;2.78;1.77;;;;;;;;;;5058992;28;20052;-77
2023/07/21 08:53:10;;;;;;;3.15;2.13;;;;;;;;;;5043899;28;20045;-75
2023/07/21 08:55:36;;;;;;;3.40;1.83;;;;;;;;;;5057953;28;20377;-76
2023/07/21 08:58:02;;;;;;;3.28;2.00;;;;;;;;;;5042969;28;20029;-76
2023/07/21 09:00:28;;;;;;;2.30;1.90;;;;;;;;;;5039335;28;20024;-76
2023/07/21 09:03:04;;;;;;;2.75;2.10;;;;;;;;;;5042237;28;20471;-76
2023/07/21 09:05:30;;;;;;;2.20;1.90;;;;;;;;;;5040682;28;20017;-76
2023/07/21 09:07:56;;;;;;;3.38;1.75;;;;;;;;;;5055455;28;20033;-76
2023/07/21 09:10:35;;;;;;;2.20;1.77;;;;;;;;;;5040067;28;20036;-76
2023/07/21 09:13:01;;;;;;;3.25;2.00;;;;;;;;;;5036942;28;20037;-76
2023/07/21 09:15:27;;;;;;;4.80;2.25;;;;;;;;;;5054969;28;20029;-76
2023/07/21 09:17:53;;;;;;;4.32;3.15;;;;;;;;;;5042399;28;20036;-76
2023/07/21 09:20:20;;;;;;;3.55;2.08;;;;;;;;;;5056101;28;20025;-75
2023/07/21 09:22:49;;;;;;;3.00;2.22;;;;;;;;;;5040648;28;20033;-76
2023/07/21 09:25:22;;;;;;;3.33;2.10;;;;;;;;;;5040825;28;20037;-76
2023/07/21 09:27:55;;;;;;;2.65;2.10;;;;;;;;;;5036614;28;20029;-76
2023/07/21 09:30:22;;;;;;;3.03;2.17;;;;;;;;;;5036316;28;20067;-75
2023/07/21 09:32:52;;;;;;;2.63;1.85;;;;;;;;;;5041533;28;20388;-76
2023/07/21 09:35:19;;;;;;;2.65;2.17;;;;;;;;;;5044263;28;20063;-76
2023/07/21 09:37:49;;;;;;;4.30;2.08;;;;;;;;;;5039830;28;20086;-77
2023/07/21 09:40:17;;;;;;;3.22;2.10;;;;;;;;;;5038816;28;20037;-77
2023/07/21 09:42:43;;;;;;;2.92;2.30;;;;;;;;;;5038932;28;20112;-76
2023/07/21 09:45:10;;;;;;;4.15;2.22;;;;;;;;;;5037280;28;20400;-77
2023/07/21 09:47:39;;;;;;;3.88;2.13;;;;;;;;;;5043631;28;20036;-76
2023/07/21 09:50:05;;;;;;;2.85;2.22;;;;;;;;;;5045186;28;20025;-74
2023/07/21 09:52:37;;;;;;;3.67;2.40;;;;;;;;;;5045100;28;20427;-76
2023/07/21 09:55:10;;;;;;;3.65;2.65;;;;;;;;;;5059535;28;20051;-77
2023/07/21 09:57:41;;;;;;;4.13;2.30;;;;;;;;;;5042679;28;20033;-77
2023/07/21 10:00:13;;;;;;;3.00;2.20;;;;;;;;;;5045675;28;20027;-76
2023/07/21 10:02:43;;;;;;;5.38;2.20;;;;;;;;;;5058953;28;20064;-77
2023/07/21 10:05:10;;;;;;;5.50;2.30;;;;;;;;;;5040982;28;20029;-77
2023/07/21 10:07:36;;;;;;;5.07;2.40;;;;;;;;;;5046134;28;20349;-73
2023/07/21 10:10:05;;;;;;;3.10;2.33;;;;;;;;;;5043668;28;20373;-73
2023/07/21 10:12:41;;;;;;;3.22;2.05;;;;;;;;;;5046150;28;20468;-73
2023/07/21 10:15:21;;;;;;;3.58;2.28;;;;;;;;;;5045030;28;20064;-73
2023/07/21 10:18:01;;;;;;;2.70;2.00;;;;;;;;;;5043984;28;20365;-73
2023/07/21 10:20:37;;;;;;;2.53;1.90;;;;;;;;;;5048007;28;20025;-73
2023/07/21 10:23:04;;;;;;;2.20;2.00;;;;;;;;;;5043644;28;20021;-72
2023/07/21 10:25:45;;;;;;;2.40;2.05;;;;;;;;;;5047214;28;20033;-72
2023/07/21 10:28:13;;;;;;;3.40;2.00;;;;;;;;;;5050689;28;20491;-74
2023/07/21 10:30:39;;;;;;;2.85;2.00;;;;;;;;;;5042122;28;20036;-73
2023/07/21 10:33:21;;;;;;;2.35;1.67;;;;;;;;;;5054772;28;20068;-73
2023/07/21 10:35:48;;;;;;;2.50;2.00;;;;;;;;;;5041498;28;20037;-73
2023/07/21 10:38:14;;;;;;;2.47;2.00;;;;;;;;;;5042970;28;20064;-77
2023/07/21 10:40:44;;;;;;;2.60;2.35;;;;;;;;;;5044749;28;20543;-77
2023/07/21 10:43:10;;;;;;;3.05;2.05;;;;;;;;;;5043485;28;20016;-77
2023/07/21 10:45:37;;;;;;;3.00;2.10;;;;;;;;;;5055575;28;20029;-77
2023/07/21 10:48:11;;;;;;;2.70;2.40;;;;;;;;;;5044528;28;20040;-77
2023/07/21 10:50:40;;;;;;;3.20;2.13;;;;;;;;;;5041715;28;20603;-77
2023/07/21 10:53:06;;;;;;;2.20;1.90;;;;;;;;;;5037856;28;20480;-77
2023/07/21 10:55:32;;;;;;;2.30;1.80;;;;;;;;;;5036145;28;20033;-77
2023/07/21 10:57:58;;;;;;;3.10;2.20;;;;;;;;;;5056933;28;20480;-78
2023/07/21 11:00:25;;;;;;;2.70;1.90;;;;;;;;;;5051579;28;20116;-77
2023/07/21 11:02:54;;;;;;;1.92;1.73;;;;;;;;;;5050645;28;20025;-78
2023/07/21 11:05:22;;;;;;;2.60;2.13;;;;;;;;;;5038396;28;20017;-76
2023/07/21 11:07:48;;;;;;;2.00;1.80;;;;;;;;;;5040592;28;20039;-77
2023/07/21 11:10:15;;;;;;;2.60;2.10;;;;;;;;;;5054763;28;20025;-77
2023/07/21 11:12:41;;;;;;;2.78;2.10;;;;;;;;;;5043974;28;20029;-77
2023/07/21 11:15:10;;;;;;;2.65;2.00;;;;;;;;;;5043138;28;20587;-77
2023/07/21 11:17:36;;;;;;;2.28;2.08;;;;;;;;;;5041068;28;20114;-77
2023/07/21 11:20:05;;;;;;;3.15;2.15;;;;;;;;;;5040539;28;20144;-67
2023/07/21 11:22:33;;;;;;;3.65;1.90;;;;;;;;;;5042495;28;20076;-67
2023/07/21 11:25:10;;;;;;;3.63;2.10;;;;;;;;;;5041797;28;20040;-75
2023/07/21 11:27:42;;;;;;;3.53;2.30;;;;;;;;;;5042325;28;20468;-76
2023/07/21 11:30:08;;;;;;;4.05;2.47;;;;;;;;;;5056639;28;20098;-76
2023/07/21 11:32:35;;;;;;;3.60;2.75;;;;;;;;;;5052479;28;20498;-77
2023/07/21 11:35:03;;;;;;;3.05;2.20;;;;;;;;;;5042391;28;20104;-77
2023/07/21 11:37:39;;;;;;;4.05;2.13;;;;;;;;;;5038531;28;20128;-74
2023/07/21 11:40:13;;;;;;;2.88;2.20;;;;;;;;;;5056326;28;20474;-77
2023/07/21 11:42:49;;;;;;;3.07;2.20;;;;;;;;;;5044429;28;20387;-77
2023/07/21 11:45:34;;;;;;;4.38;2.35;;;;;;;;;;5038534;28;20025;-77
2023/07/21 11:48:17;;;;;;;4.75;2.20;;;;;;;;;;5042162;28;20036;-77
2023/07/21 11:50:50;;;;;;;4.53;2.30;;;;;;;;;;5040108;28;20030;-77
2023/07/21 11:53:17;;;;;;;2.47;1.95;;;;;;;;;;5058179;28;20036;-76
2023/07/21 11:55:44;;;;;;;3.33;2.30;;;;;;;;;;5038320;28;20120;-78
2023/07/21 11:58:14;;;;;;;3.00;2.45;;;;;;;;;;5040157;28;20499;-77
2023/07/21 12:00:43;;;;;;;4.10;2.10;;;;;;;;;;5039568;28;20036;-74
2023/07/21 12:03:10;;;;;;;4.53;2.53;;;;;;;;;;5058114;28;20032;-75
2023/07/21 12:05:37;;;;;;;3.70;2.30;;;;;;;;;;5042157;28;20404;-74
2023/07/21 12:08:06;;;;;;;5.88;2.25;;;;;;;;;;5040899;28;20092;-74
2023/07/21 12:10:33;;;;;;;3.63;2.60;;;;;;;;;;5037995;28;20556;-74
2023/07/21 12:12:59;;;;;;;2.63;1.90;;;;;;;;;;5041160;28;20086;-69
2023/07/21 12:15:29;;;;;;;3.13;2.00;;;;;;;;;;5043793;28;20069;-68
2023/07/21 12:17:56;;;;;;;2.17;1.98;;;;;;;;;;5035145;28;20828;-75
2023/07/21 12:20:22;;;;;;;4.22;2.13;;;;;;;;;;5062252;28;20039;-74
2023/07/21 12:22:48;;;;;;;4.70;2.10;;;;;;;;;;5042621;28;20389;-74
2023/07/21 12:25:14;;;;;;;2.33;1.80;;;;;;;;;;5061681;28;20040;-74
2023/07/21 12:27:41;;;;;;;3.45;2.17;;;;;;;;;;5046668;28;20033;-74
2023/07/21 12:30:08;;;;;;;2.60;2.20;;;;;;;;;;5047373;28;20553;-73
2023/07/21 12:32:34;;;;;;;2.70;1.90;;;;;;;;;;5045138;28;20033;-71
2023/07/21 12:35:01;;;;;;;3.03;2.05;;;;;;;;;;5046833;28;20021;-73
2023/07/21 12:37:27;;;;;;;2.30;2.00;;;;;;;;;;5044770;28;20287;-73
2023/07/21 12:39:54;;;;;;;4.03;2.05;;;;;;;;;;5047089;28;20041;-73
2023/07/21 12:42:20;;;;;;;2.40;2.00;;;;;;;;;;5058510;28;20472;-74
2023/07/21 12:44:46;;;;;;;2.92;2.03;;;;;;;;;;5040383;28;20102;-74
2023/07/21 12:47:13;;;;;;;3.65;2.17;;;;;;;;;;5051370;28;20029;-73
2023/07/21 12:49:39;;;;;;;4.25;2.30;;;;;;;;;;5049383;28;20025;-73
2023/07/21 12:52:05;;;;;;;2.92;2.13;;;;;;;;;;5051455;28;20025;-73
2023/07/21 12:54:34;;;;;;;3.63;2.15;;;;;;;;;;5043570;28;20025;-74
2023/07/21 12:57:01;;;;;;;3.90;2.33;;;;;;;;;;5047523;28;20036;-74
2023/07/21 12:59:27;;;;;;;2.50;1.90;;;;;;;;;;5047330;28;20029;-74
2023/07/21 13:01:53;;;;;;;3.10;2.10;;;;;;;;;;5045244;28;20033;-74
2023/07/21 13:04:20;;;;;;;2.67;1.85;;;;;;;;;;5045595;28;20035;-74
2023/07/21 13:06:46;;;;;;;2.33;2.00;;;;;;;;;;5062041;28;20029;-73
2023/07/21 13:09:12;;;;;;;3.10;2.00;;;;;;;;;;5046383;28;20753;-74
2023/07/21 13:11:38;;;;;;;2.50;2.10;;;;;;;;;;5042509;28;20570;-74
2023/07/21 13:14:05;;;;;;;2.15;1.88;;;;;;;;;;5046600;28;20028;-73
2023/07/21 13:16:31;;;;;;;4.53;2.00;;;;;;;;;;5045097;28;20400;-74
2023/07/21 13:18:57;;;;;;;4.20;2.00;;;;;;;;;;5044704;28;20577;-74
2023/07/21 13:21:23;;;;;;;5.07;1.83;;;;;;;;;;5049449;28;20109;-73
2023/07/21 13:23:49;;;;;;;2.67;1.92;;;;;;;;;;5045088;28;20032;-74
2023/07/21 13:26:15;;;;;;;4.28;2.00;;;;;;;;;;5043925;28;20024;-73
2023/07/21 13:28:41;;;;;;;4.15;2.08;;;;;;;;;;5046368;28;20033;-74
2023/07/21 13:31:07;;;;;;;3.00;2.10;;;;;;;;;;5046983;28;20444;-73
2023/07/21 13:33:34;;;;;;;4.05;2.00;;;;;;;;;;5061998;28;20032;-74
2023/07/21 13:36:00;;;;;;;2.20;1.90;;;;;;;;;;5046336;28;20025;-73
2023/07/21 13:38:27;;;;;;;2.00;1.80;;;;;;;;;;5042233;28;20695;-72
2023/07/21 13:40:55;;;;;;;3.13;1.80;;;;;;;;;;5047224;28;20104;-74
2023/07/21 13:43:21;;;;;;;2.92;1.80;;;;;;;;;;5046941;28;20453;-73
2023/07/21 13:45:47;;;;;;;1.60;1.50;;;;;;;;;;5045034;28;20036;-74
2023/07/21 13:48:13;;;;;;;1.98;1.77;;;;;;;;;;5047175;28;20032;-73
2023/07/21 13:50:39;;;;;;;3.28;2.17;;;;;;;;;;5062394;28;20064;-74
2023/07/21 13:53:05;;;;;;;2.17;1.92;;;;;;;;;;5052583;28;20035;-73
2023/07/21 13:55:31;;;;;;;2.17;1.85;;;;;;;;;;5046178;28;20067;-73
2023/07/21 13:57:58;;;;;;;1.60;1.50;;;;;;;;;;5047337;28;20040;-74
2023/07/21 14:00:24;;;;;;;3.03;1.90;;;;;;;;;;5063016;28;20017;-75
2023/07/21 14:02:51;;;;;;;2.22;1.70;;;;;;;;;;5043316;28;20017;-74
2023/07/21 14:05:17;;;;;;;2.03;1.70;;;;;;;;;;5046765;28;20028;-74
2023/07/21 14:07:48;;;;;;;1.58;1.45;;;;;;;;;;5049115;28;20090;-74
2023/07/21 14:10:15;;;;;;;3.35;1.70;;;;;;;;;;5050593;28;20047;-74
2023/07/21 14:12:42;;;;;;;1.65;1.55;;;;;;;;;;5046438;28;20025;-75
2023/07/21 14:15:11;;;;;;;2.15;1.75;;;;;;;;;;5038280;28;20057;-75
2023/07/21 14:17:37;;;;;;;2.00;1.90;;;;;;;;;;5059372;28;20041;-76
2023/07/21 14:20:09;;;;;;;3.05;1.63;;;;;;;;;;5046391;28;20029;-75
2023/07/21 14:22:35;;;;;;;2.00;1.70;;;;;;;;;;5060264;28;20255;-74
2023/07/21 14:25:01;;;;;;;1.60;1.50;;;;;;;;;;5043832;28;20503;-76
2023/07/21 14:27:27;;;;;;;1.40;1.30;;;;;;;;;;5038181;28;20029;-75
2023/07/21 14:29:53;;;;;;;1.60;1.50;;;;;;;;;;5044725;28;20033;-75
2023/07/21 14:32:19;;;;;;;2.58;1.75;;;;;;;;;;5059287;28;20112;-75
2023/07/21 14:34:46;;;;;;;2.50;1.70;;;;;;;;;;5042779;28;20451;-75
2023/07/21 14:37:12;;;;;;;1.70;1.55;;;;;;;;;;5044845;28;20412;-74
2023/07/21 14:39:38;;;;;;;2.90;1.77;;;;;;;;;;5046728;28;20439;-75
2023/07/21 14:42:05;;;;;;;1.77;1.60;;;;;;;;;;5045002;28;20024;-75
2023/07/21 14:44:35;;;;;;;1.92;1.73;;;;;;;;;;5048996;28;20676;-74